createdAt,value
2017-12-20T00:01:31.681Z,184.30
2017-12-20T00:03:39.030Z,183.13
2017-12-20T00:05:45.913Z,183.20
2017-12-20T00:07:52.596Z,176.37
2017-12-20T00:09:58.968Z,175.40
2017-12-20T00:12:06.682Z,158.27
2017-12-20T00:14:12.700Z,163.17
2017-12-20T00:16:18.354Z,155.53
2017-12-20T00:18:25.588Z,148.07
2017-12-20T00:20:35.384Z,143.10
2017-12-20T00:22:47.468Z,136.03
2017-12-20T00:24:54.175Z,136.10
2017-12-20T00:27:05.452Z,130.03
2017-12-20T00:29:16.259Z,128.40
2017-12-20T00:31:22.175Z,121.27
2017-12-20T00:33:31.220Z,119.73
2017-12-20T00:35:41.083Z,114.50
2017-12-20T00:37:50.554Z,113.80
2017-12-20T00:40:04.936Z,102.30
2017-12-20T00:42:12.386Z,101.90
2017-12-20T00:44:22.321Z,97.33
2017-12-20T00:46:30.880Z,93.53
2017-12-20T00:48:39.859Z,89.03
2017-12-20T00:50:47.962Z,84.27
2017-12-20T00:52:53.894Z,87.43
2017-12-20T00:55:01.875Z,81.40
2017-12-20T00:57:08.767Z,75.00
2017-12-20T00:59:15.290Z,73.97
2017-12-20T01:01:22.252Z,72.93
2017-12-20T01:03:30.706Z,70.13
2017-12-20T01:05:38.548Z,70.87
2017-12-20T01:07:45.899Z,67.63
2017-12-20T01:09:52.506Z,61.40
2017-12-20T01:12:02.488Z,60.37
2017-12-20T01:14:14.181Z,60.03
2017-12-20T01:16:23.849Z,56.97
2017-12-20T01:18:30.453Z,55.83
2017-12-20T01:20:38.127Z,54.63
2017-12-20T01:22:44.682Z,52.63
2017-12-20T01:24:51.302Z,49.10
2017-12-20T01:26:57.407Z,47.80
2017-12-20T01:29:03.102Z,43.90
2017-12-20T01:31:09.924Z,45.03
2017-12-20T01:33:19.334Z,41.50
2017-12-20T01:35:26.164Z,44.27
2017-12-20T01:37:34.921Z,42.67
2017-12-20T01:39:42.147Z,39.87
2017-12-20T01:41:49.281Z,39.53
2017-12-20T01:43:57.295Z,39.10
2017-12-20T01:46:03.355Z,37.07
2017-12-20T01:48:09.135Z,37.43
2017-12-20T01:50:14.747Z,34.97
2017-12-20T01:52:22.442Z,31.30
2017-12-20T01:54:28.612Z,32.37
2017-12-20T01:56:34.601Z,31.07
2017-12-20T01:58:40.248Z,28.93
2017-12-20T02:00:47.678Z,28.30
2017-12-20T02:02:55.853Z,27.30
2017-12-20T02:05:03.281Z,26.07
2017-12-20T02:07:09.479Z,26.50
2017-12-20T02:09:16.342Z,23.93
2017-12-20T02:11:24.852Z,27.03
2017-12-20T02:13:31.475Z,22.87
2017-12-20T02:15:37.934Z,23.57
2017-12-20T02:17:43.392Z,22.10
2017-12-20T02:19:51.866Z,20.70
2017-12-20T02:22:02.189Z,21.60
2017-12-20T02:24:09.339Z,21.50
2017-12-20T02:26:16.343Z,22.43
2017-12-20T02:28:21.943Z,19.33
2017-12-20T02:30:31.906Z,19.57
2017-12-20T02:32:37.639Z,19.20
2017-12-20T02:34:44.505Z,17.60
2017-12-20T02:36:50.149Z,17.73
2017-12-20T02:38:55.684Z,15.50
2017-12-20T02:41:02.216Z,16.83
2017-12-20T02:43:09.148Z,15.50
2017-12-20T02:45:15.390Z,13.77
2017-12-20T02:47:23.364Z,15.70
2017-12-20T02:49:29.636Z,13.53
2017-12-20T02:51:35.802Z,14.73
2017-12-20T02:53:42.473Z,13.70
2017-12-20T02:55:48.157Z,13.80
2017-12-20T02:57:55.639Z,13.93
2017-12-20T03:00:02.579Z,12.70
2017-12-20T03:02:11.337Z,12.50
2017-12-20T03:04:16.702Z,11.40
2017-12-20T03:06:22.451Z,11.60
2017-12-20T03:08:29.946Z,10.80
2017-12-20T03:10:36.017Z,11.53
2017-12-20T03:12:41.795Z,11.40
2017-12-20T03:14:48.360Z,10.60
2017-12-20T03:16:53.915Z,10.37
2017-12-20T03:19:00.053Z,9.57
2017-12-20T03:21:05.972Z,9.63
2017-12-20T03:23:11.690Z,9.00
2017-12-20T03:25:17.107Z,8.33
2017-12-20T03:27:22.676Z,8.83
2017-12-20T03:29:28.288Z,8.77
2017-12-20T03:31:34.394Z,8.87
2017-12-20T03:33:39.842Z,8.50
2017-12-20T03:35:45.063Z,8.30
2017-12-20T03:37:52.483Z,8.40
2017-12-20T03:39:59.365Z,7.07
2017-12-20T03:42:05.151Z,8.73
2017-12-20T03:44:11.736Z,8.50
2017-12-20T03:46:17.069Z,7.57
2017-12-20T03:48:24.173Z,7.07
2017-12-20T03:50:31.086Z,6.60
2017-12-20T03:52:36.871Z,6.90
2017-12-20T03:54:43.609Z,7.43
2017-12-20T03:56:49.013Z,6.50
2017-12-20T03:58:56.130Z,7.90
2017-12-20T04:01:03.239Z,6.93
2017-12-20T04:03:09.942Z,7.07
2017-12-20T04:05:15.727Z,6.47
2017-12-20T04:07:21.572Z,5.73
2017-12-20T04:09:29.678Z,6.30
2017-12-20T04:11:42.767Z,6.60
2017-12-20T04:13:49.350Z,5.63
2017-12-20T04:15:55.706Z,5.83
2017-12-20T04:18:01.880Z,5.80
2017-12-20T04:20:07.405Z,5.20
2017-12-20T04:22:13.087Z,5.67
2017-12-20T04:24:18.715Z,5.37
2017-12-20T04:26:24.080Z,5.53
2017-12-20T04:28:29.619Z,4.97
2017-12-20T04:30:35.389Z,5.33
2017-12-20T04:32:41.214Z,8.77
2017-12-20T04:34:47.718Z,210.30
2017-12-20T04:36:53.521Z,652.93
2017-12-20T04:38:59.252Z,598.67
2017-12-20T04:41:06.037Z,448.53
2017-12-20T04:43:11.796Z,175.97
2017-12-20T04:45:17.273Z,182.33
2017-12-20T04:47:23.006Z,135.17
2017-12-20T04:49:28.566Z,131.73
2017-12-20T04:51:33.781Z,115.77
2017-12-20T04:53:40.045Z,98.23
2017-12-20T04:55:45.638Z,73.83
2017-12-20T04:57:51.477Z,85.07
2017-12-20T04:59:57.556Z,67.53
2017-12-20T05:02:03.905Z,73.67
2017-12-20T05:04:10.749Z,47.00
2017-12-20T05:06:17.129Z,42.17
2017-12-20T05:08:24.210Z,51.37
2017-12-20T05:10:30.882Z,30.03
2017-12-20T05:12:37.295Z,38.83
2017-12-20T05:14:43.756Z,33.67
2017-12-20T05:16:49.832Z,26.23
2017-12-20T05:18:56.336Z,32.60
2017-12-20T05:21:02.074Z,23.70
2017-12-20T05:23:09.517Z,21.70
2017-12-20T05:25:16.137Z,20.00
2017-12-20T05:27:23.235Z,22.23
2017-12-20T05:29:30.206Z,16.93
2017-12-20T05:31:37.853Z,15.10
2017-12-20T05:33:43.938Z,19.07
2017-12-20T05:35:50.471Z,16.80
2017-12-20T05:37:56.136Z,12.80
2017-12-20T05:40:02.669Z,10.50
2017-12-20T05:42:10.190Z,12.50
2017-12-20T05:44:16.902Z,11.63
2017-12-20T05:46:23.722Z,9.60
2017-12-20T05:48:30.833Z,10.00
2017-12-20T05:50:37.371Z,8.57
2017-12-20T05:52:45.089Z,9.53
2017-12-20T05:54:53.104Z,7.33
2017-12-20T05:57:00.243Z,8.30
2017-12-20T05:59:07.037Z,10.90
2017-12-20T06:01:12.782Z,7.07
2017-12-20T06:03:18.844Z,7.90
2017-12-20T06:05:25.519Z,11.07
2017-12-20T06:07:32.872Z,7.40
2017-12-20T06:09:39.504Z,8.00
2017-12-20T06:11:45.438Z,7.87
2017-12-20T06:13:51.660Z,7.30
2017-12-20T06:16:00.790Z,7.37
2017-12-20T06:18:14.026Z,7.67
2017-12-20T06:20:21.132Z,8.30
2017-12-20T06:22:29.161Z,7.87
2017-12-20T06:24:35.558Z,8.27
2017-12-20T06:26:41.647Z,7.40
2017-12-20T06:28:47.396Z,7.13
2017-12-20T06:30:54.383Z,9.73
2017-12-20T06:33:00.357Z,7.07
2017-12-20T06:35:07.807Z,7.10
2017-12-20T06:37:13.642Z,7.30
2017-12-20T06:39:19.490Z,7.30
2017-12-20T06:41:26.818Z,6.73
2017-12-20T06:43:32.401Z,8.10
2017-12-20T06:45:38.294Z,7.53
2017-12-20T06:47:44.103Z,7.90
2017-12-20T06:49:51.788Z,7.13
2017-12-20T06:51:57.277Z,7.80
2017-12-20T06:54:04.829Z,7.50
2017-12-20T06:56:10.679Z,7.10
2017-12-20T06:58:16.419Z,7.90
2017-12-20T07:00:22.352Z,6.93
2017-12-20T07:02:28.225Z,9.30
2017-12-20T07:04:34.754Z,7.03
2017-12-20T07:06:41.717Z,394.03
2017-12-20T07:08:49.191Z,200.80
2017-12-20T07:10:57.575Z,258.33
2017-12-20T07:13:05.761Z,153.80
2017-12-20T07:15:11.574Z,114.87
2017-12-20T07:17:17.209Z,56.70
2017-12-20T07:19:24.116Z,39.90
2017-12-20T07:21:32.450Z,29.83
2017-12-20T07:23:38.217Z,23.73
2017-12-20T07:25:43.775Z,21.63
2017-12-20T07:27:49.400Z,21.23
2017-12-20T07:29:56.689Z,19.40
2017-12-20T07:32:02.218Z,17.33
2017-12-20T07:34:08.238Z,99.00
2017-12-20T07:36:14.096Z,15.77
2017-12-20T07:38:20.721Z,18.40
2017-12-20T07:40:27.702Z,16.00
2017-12-20T07:42:33.636Z,13.70
2017-12-20T07:44:39.663Z,75.20
2017-12-20T07:46:48.921Z,871.53
2017-12-20T07:48:55.644Z,240.37
2017-12-20T07:51:01.808Z,1755.77
2017-12-20T07:54:32.143Z,533.67
2017-12-20T07:56:41.064Z,769.47
2017-12-20T07:58:51.370Z,375.50
2017-12-20T08:00:57.317Z,670.57
2017-12-20T08:03:03.829Z,165.37
2017-12-20T08:05:10.078Z,36.63
2017-12-20T08:07:16.201Z,413.20
2017-12-20T08:09:22.123Z,315.97
2017-12-20T08:11:28.600Z,376.90
2017-12-20T08:13:34.395Z,80.17
2017-12-20T08:15:41.129Z,31.73
2017-12-20T08:17:47.275Z,480.50
2017-12-20T08:19:54.465Z,266.33
2017-12-20T08:22:00.202Z,86.13
2017-12-20T08:24:05.646Z,83.07
2017-12-20T08:26:12.282Z,25.63
2017-12-20T08:28:19.624Z,13.53
2017-12-20T08:30:25.128Z,10.80
2017-12-20T08:32:30.691Z,40.73
2017-12-20T08:34:37.317Z,10.77
2017-12-20T08:36:42.690Z,8.37
2017-12-20T08:38:50.798Z,580.50
2017-12-20T08:40:57.621Z,20.13
2017-12-20T08:43:05.728Z,500.10
2017-12-20T08:45:12.511Z,915.50
2017-12-20T08:47:23.975Z,30.37
2017-12-20T08:49:31.211Z,859.80
2017-12-20T08:51:40.534Z,746.77
2017-12-20T08:53:48.218Z,69.30
2017-12-20T08:55:57.439Z,598.37
2017-12-20T08:58:08.191Z,281.60
2017-12-20T09:00:15.166Z,478.23
2017-12-20T09:02:22.291Z,181.70
2017-12-20T09:04:30.500Z,14.20
2017-12-20T09:06:37.020Z,13.07
2017-12-20T09:08:43.468Z,17.47
2017-12-20T09:10:49.221Z,10.93
2017-12-20T09:12:56.895Z,9.53
2017-12-20T09:15:03.572Z,523.57
2017-12-20T09:17:12.925Z,967.63
2017-12-20T09:19:19.495Z,291.23
2017-12-20T09:21:27.317Z,301.43
2017-12-20T09:23:33.338Z,949.03
2017-12-20T09:25:41.532Z,934.23
2017-12-20T09:27:47.943Z,315.93
2017-12-20T09:29:54.655Z,209.07
2017-12-20T09:32:01.780Z,156.63
2017-12-20T09:34:11.820Z,153.57
2017-12-20T09:36:18.409Z,137.47
2017-12-20T09:38:25.534Z,472.77
2017-12-20T09:40:31.227Z,111.60
2017-12-20T09:42:38.132Z,230.77
2017-12-20T09:44:44.324Z,130.07
2017-12-20T09:46:50.366Z,332.37
2017-12-20T09:48:58.243Z,101.27
2017-12-20T09:51:06.832Z,80.30
2017-12-20T09:53:16.926Z,66.00
2017-12-20T09:55:25.748Z,49.20
2017-12-20T09:57:35.206Z,48.73
2017-12-20T09:59:42.809Z,41.30
2017-12-20T10:01:49.470Z,348.93
2017-12-20T10:03:58.336Z,33.90
2017-12-20T10:06:05.793Z,30.10
2017-12-20T10:08:13.878Z,127.43
2017-12-20T10:10:20.345Z,81.97
2017-12-20T10:12:26.804Z,327.23
2017-12-20T10:14:33.247Z,337.90
2017-12-20T10:16:40.003Z,555.50
2017-12-20T10:18:47.782Z,550.63
2017-12-20T10:20:54.707Z,276.70
2017-12-20T10:23:01.972Z,57.50
2017-12-20T10:25:11.032Z,29.63
2017-12-20T10:27:17.145Z,19.37
2017-12-20T10:29:24.859Z,17.40
2017-12-20T10:31:32.470Z,12.03
2017-12-20T10:33:41.351Z,14.20
2017-12-20T10:35:49.421Z,10.87
2017-12-20T10:37:56.355Z,9.30
2017-12-20T10:40:02.730Z,15.60
2017-12-20T10:42:11.064Z,14.43
2017-12-20T10:44:26.564Z,10.80
2017-12-20T10:46:33.383Z,9.60
2017-12-20T10:48:44.171Z,9.23
2017-12-20T10:50:52.882Z,9.80
2017-12-20T10:52:59.556Z,8.73
2017-12-20T10:55:07.844Z,484.33
2017-12-20T10:57:20.864Z,15.73
2017-12-20T10:59:27.400Z,9.40
2017-12-20T11:01:34.318Z,8.20
2017-12-20T11:03:40.432Z,188.00
2017-12-20T11:05:49.665Z,279.97
2017-12-20T11:07:59.383Z,1018.77
2017-12-20T11:10:08.622Z,614.57
2017-12-20T11:12:16.122Z,523.40
2017-12-20T11:14:26.094Z,568.00
2017-12-20T11:16:39.928Z,499.10
2017-12-20T11:18:48.074Z,470.80
2017-12-20T11:20:55.082Z,464.57
2017-12-20T11:23:07.349Z,447.23
2017-12-20T11:25:17.011Z,440.70
2017-12-20T11:27:23.968Z,428.33
2017-12-20T11:29:31.639Z,414.63
2017-12-20T11:31:39.799Z,397.17
2017-12-20T11:33:46.872Z,383.83
2017-12-20T11:35:58.339Z,379.77
2017-12-20T11:38:05.319Z,361.90
2017-12-20T11:40:12.823Z,353.87
2017-12-20T11:42:20.736Z,341.07
2017-12-20T11:44:34.114Z,492.07
2017-12-20T11:46:41.447Z,308.93
2017-12-20T11:48:47.800Z,337.23
2017-12-20T11:50:55.738Z,447.73
2017-12-20T11:53:05.881Z,335.60
2017-12-20T11:55:13.914Z,321.70
2017-12-20T11:57:26.086Z,329.73
2017-12-20T11:59:48.556Z,407.33
2017-12-20T12:01:58.421Z,279.67
2017-12-20T12:04:05.923Z,256.97
2017-12-20T12:06:13.434Z,240.77
2017-12-20T12:08:24.977Z,246.60
2017-12-20T12:10:32.823Z,223.20
2017-12-20T12:12:43.822Z,231.60
2017-12-20T12:14:51.218Z,506.53
2017-12-20T12:16:57.331Z,598.57
2017-12-20T12:19:03.410Z,715.53
2017-12-20T12:21:12.977Z,641.97
2017-12-20T12:23:21.391Z,609.10
2017-12-20T12:25:31.937Z,582.17
2017-12-20T12:27:40.401Z,575.83
2017-12-20T12:29:49.934Z,550.70
2017-12-20T12:31:59.848Z,539.23
2017-12-20T12:34:09.607Z,523.33
2017-12-20T12:36:15.693Z,510.20
2017-12-20T12:38:21.842Z,501.43
2017-12-20T12:40:28.151Z,491.53
2017-12-20T12:42:36.274Z,481.40
2017-12-20T12:44:46.078Z,466.00
2017-12-20T12:46:58.113Z,460.97
2017-12-20T12:49:07.499Z,457.40
2017-12-20T12:51:15.400Z,457.47
2017-12-20T12:53:25.423Z,440.80
2017-12-20T12:55:34.255Z,417.10
2017-12-20T12:57:40.045Z,411.53
2017-12-20T12:59:46.062Z,387.40
2017-12-20T13:01:56.828Z,378.00
2017-12-20T13:04:06.075Z,811.17
2017-12-20T13:06:16.045Z,467.27
2017-12-20T13:08:24.660Z,418.20
2017-12-20T13:10:33.879Z,375.10
2017-12-20T13:12:41.987Z,340.70
2017-12-20T13:14:50.216Z,337.83
2017-12-20T13:17:02.026Z,346.10
2017-12-20T13:19:11.293Z,325.53
2017-12-20T13:21:20.005Z,310.47
2017-12-20T13:23:29.584Z,298.20
2017-12-20T13:25:44.980Z,278.27
2017-12-20T13:27:55.516Z,395.43
2017-12-20T13:30:04.049Z,856.53
2017-12-20T13:32:15.798Z,1319.30
2017-12-20T13:34:27.082Z,687.87
2017-12-20T13:36:40.383Z,602.50
2017-12-20T13:38:50.165Z,569.40
2017-12-20T13:41:02.402Z,551.27
2017-12-20T13:43:10.827Z,538.90
2017-12-20T13:45:27.059Z,532.80
2017-12-20T13:47:36.435Z,527.43
2017-12-20T13:49:53.521Z,518.17
2017-12-20T13:52:08.031Z,501.97
2017-12-20T13:54:15.937Z,489.10
2017-12-20T13:56:28.574Z,474.73
2017-12-20T13:58:38.341Z,476.00
2017-12-20T14:00:47.639Z,471.67
2017-12-20T14:02:57.332Z,454.47
2017-12-20T14:05:08.794Z,449.10
2017-12-20T14:07:21.606Z,433.50
2017-12-20T14:09:35.394Z,434.83
2017-12-20T14:11:43.522Z,427.73
2017-12-20T14:13:52.147Z,411.20
2017-12-20T14:15:58.992Z,393.73
2017-12-20T14:18:09.894Z,376.73
2017-12-20T14:20:16.658Z,369.40
2017-12-20T14:22:24.724Z,377.47
2017-12-20T14:24:33.840Z,636.63
2017-12-20T14:26:42.538Z,315.30
2017-12-20T14:28:48.949Z,192.63
2017-12-20T14:30:57.497Z,159.83
2017-12-20T14:33:06.109Z,124.23
2017-12-20T14:35:15.646Z,152.23
2017-12-20T14:37:25.400Z,230.17
2017-12-20T14:39:35.770Z,111.17
2017-12-20T14:41:50.515Z,92.77
2017-12-20T14:44:00.173Z,84.97
2017-12-20T14:46:10.153Z,67.07
2017-12-20T14:48:25.109Z,49.77
2017-12-20T14:50:35.015Z,94.97
2017-12-20T14:52:42.529Z,74.57
2017-12-20T14:54:55.950Z,54.43
2017-12-20T14:57:09.131Z,44.00
2017-12-20T14:59:28.321Z,44.70
2017-12-20T15:01:44.364Z,33.70
2017-12-20T15:03:52.137Z,34.30
2017-12-20T15:06:06.285Z,33.07
2017-12-20T15:08:16.761Z,31.90
2017-12-20T15:10:24.624Z,247.27
2017-12-20T15:12:31.247Z,107.77
2017-12-20T15:14:40.651Z,658.77
2017-12-20T15:16:55.309Z,370.40
2017-12-20T15:19:01.572Z,638.87
2017-12-20T15:21:20.119Z,425.70
2017-12-20T15:23:31.468Z,378.33
2017-12-20T15:25:42.164Z,435.60
2017-12-20T15:27:54.390Z,297.83
2017-12-20T15:30:04.140Z,316.03
2017-12-20T15:32:18.790Z,104.60
2017-12-20T15:34:33.068Z,45.97
2017-12-20T15:36:46.623Z,351.07
2017-12-20T15:39:03.015Z,264.77
2017-12-20T15:41:11.445Z,396.80
2017-12-20T15:43:19.274Z,447.20
2017-12-20T15:45:30.308Z,373.70
2017-12-20T15:47:42.455Z,538.53
2017-12-20T15:49:55.590Z,170.80
2017-12-20T15:52:13.795Z,121.97
2017-12-20T15:54:27.331Z,480.20
2017-12-20T15:56:54.332Z,132.20
2017-12-20T15:59:09.613Z,38.17
2017-12-20T16:01:25.723Z,18.43
2017-12-20T16:03:42.878Z,14.03
2017-12-20T16:05:56.883Z,10.50
2017-12-20T16:08:06.501Z,10.53
2017-12-20T16:10:27.805Z,9.00
2017-12-20T16:12:38.674Z,9.10
2017-12-20T16:14:52.613Z,9.03
2017-12-20T16:17:05.345Z,8.37
2017-12-20T16:19:19.599Z,8.00
2017-12-20T16:21:31.709Z,7.67
2017-12-20T16:23:42.728Z,7.13
2017-12-20T16:25:55.135Z,7.13
2017-12-20T16:28:07.936Z,7.27
2017-12-20T16:30:23.717Z,6.43
2017-12-20T16:32:34.165Z,6.70
2017-12-20T16:34:49.274Z,7.33
2017-12-20T16:36:59.083Z,5.57
2017-12-20T16:39:12.043Z,6.30
2017-12-20T16:41:24.892Z,6.03
2017-12-20T16:43:37.932Z,6.23
2017-12-20T16:45:46.503Z,5.47
2017-12-20T16:47:56.403Z,5.83
2017-12-20T16:50:10.968Z,4.60
2017-12-20T16:52:18.930Z,5.03
2017-12-20T16:54:34.674Z,5.57
2017-12-20T16:56:44.805Z,5.43
2017-12-20T16:59:01.864Z,5.33
2017-12-20T17:01:19.315Z,5.63
2017-12-20T17:03:41.495Z,4.67
2017-12-20T17:05:56.290Z,4.77
2017-12-20T17:08:06.954Z,4.80
2017-12-20T17:10:25.269Z,4.97
2017-12-20T17:12:46.890Z,4.80
2017-12-20T17:14:56.897Z,4.77
2017-12-20T17:17:10.561Z,4.73
2017-12-20T17:19:22.047Z,4.80
2017-12-20T17:21:41.919Z,4.63
2017-12-20T17:23:51.454Z,4.40
2017-12-20T17:28:17.662Z,4.80
2017-12-20T17:30:32.536Z,4.00
2017-12-20T17:32:44.516Z,4.50
2017-12-20T17:34:53.128Z,3.97
2017-12-20T17:37:02.556Z,4.57
2017-12-20T17:39:12.530Z,4.10
2017-12-20T17:41:25.029Z,4.13
2017-12-20T17:43:35.832Z,3.63
2017-12-20T17:45:44.767Z,4.63
2017-12-20T17:47:52.352Z,4.30
2017-12-20T17:50:06.266Z,3.70
2017-12-20T17:52:20.737Z,4.20
2017-12-20T17:54:31.468Z,4.03
2017-12-20T17:56:39.561Z,4.03
2017-12-20T17:58:54.349Z,3.60
2017-12-20T18:01:10.104Z,3.70
2017-12-20T18:03:24.124Z,4.23
2017-12-20T18:05:33.684Z,4.63
2017-12-20T18:07:47.304Z,4.37
2017-12-20T18:12:17.135Z,4.20
2017-12-20T18:14:28.349Z,3.50
2017-12-20T18:16:38.244Z,4.43
2017-12-20T18:18:46.767Z,3.90
2017-12-20T18:20:58.863Z,3.77
2017-12-20T18:23:07.647Z,3.73
2017-12-20T18:25:16.762Z,3.30
2017-12-20T18:27:25.784Z,3.40
2017-12-20T18:29:34.457Z,3.33
2017-12-20T18:31:43.286Z,3.37
2017-12-20T18:33:49.609Z,3.23
2017-12-20T18:35:55.491Z,3.60
2017-12-20T18:38:04.330Z,3.77
2017-12-20T18:40:19.595Z,3.10
2017-12-20T18:42:27.437Z,4.00
2017-12-20T18:44:36.413Z,3.33
2017-12-20T18:46:45.882Z,3.30
2017-12-20T18:48:56.429Z,3.30
2017-12-20T18:51:09.590Z,3.20
2017-12-20T18:53:20.778Z,3.20
2017-12-20T18:55:32.130Z,3.17
2017-12-20T18:57:47.746Z,3.17
2017-12-20T19:00:06.842Z,3.17
2017-12-20T19:02:20.209Z,2.60
2017-12-20T19:04:30.337Z,3.30
2017-12-20T19:06:47.193Z,2.90
2017-12-20T19:09:00.767Z,5.10
2017-12-20T19:11:20.494Z,2.57
2017-12-20T19:13:31.585Z,3.30
2017-12-20T19:18:01.882Z,3.43
2017-12-20T19:20:21.372Z,4.00
2017-12-20T19:22:31.463Z,2.93
2017-12-20T19:24:42.321Z,3.37
2017-12-20T19:26:51.018Z,2.90
2017-12-20T19:29:08.811Z,3.00
2017-12-20T19:31:22.160Z,2.77
2017-12-20T19:33:32.330Z,2.97
2017-12-20T19:35:46.886Z,3.00
2017-12-20T19:37:58.682Z,3.03
2017-12-20T19:40:11.494Z,3.03
2017-12-20T19:42:20.407Z,2.90
2017-12-20T19:44:32.026Z,3.20
2017-12-20T19:46:46.677Z,3.10
2017-12-20T19:48:55.349Z,2.90
2017-12-20T19:51:03.556Z,3.60
2017-12-20T19:53:13.241Z,2.67
2017-12-20T19:55:36.332Z,2.63
2017-12-20T19:57:48.809Z,3.40
2017-12-20T19:59:58.175Z,2.90
2017-12-20T20:02:21.449Z,3.00
2017-12-20T20:04:41.972Z,2.90
2017-12-20T20:06:57.758Z,3.33
2017-12-20T20:11:32.072Z,3.73
2017-12-20T20:13:48.852Z,3.27
2017-12-20T20:16:12.480Z,2.90
2017-12-20T20:18:26.789Z,2.80
2017-12-20T20:20:46.535Z,2.87
2017-12-20T20:22:59.672Z,3.27
2017-12-20T20:25:19.210Z,3.27
2017-12-20T20:27:38.009Z,2.90
2017-12-20T20:32:14.173Z,3.17
2017-12-20T20:34:25.807Z,3.00
2017-12-20T20:36:44.106Z,3.10
2017-12-20T20:38:57.224Z,3.20
2017-12-20T20:41:09.805Z,3.40
2017-12-20T20:43:23.689Z,3.20
2017-12-20T20:45:38.408Z,3.20
2017-12-20T20:47:51.671Z,3.50
2017-12-20T20:50:01.700Z,2.93
2017-12-20T20:52:09.388Z,3.40
2017-12-20T20:54:22.831Z,3.10
2017-12-20T20:56:31.107Z,2.60
2017-12-20T20:58:39.015Z,2.90
2017-12-20T21:00:52.331Z,3.37
2017-12-20T21:03:01.914Z,3.20
2017-12-20T21:05:12.214Z,3.37
2017-12-20T21:07:23.983Z,3.10
2017-12-20T21:09:32.916Z,2.87
2017-12-20T21:11:41.312Z,3.50
2017-12-20T21:13:54.038Z,2.53
2017-12-20T21:16:03.008Z,3.10
2017-12-20T21:18:13.510Z,3.57
2017-12-20T21:20:23.495Z,3.03
2017-12-20T21:22:33.057Z,3.10
2017-12-20T21:24:39.713Z,3.03
2017-12-20T21:29:15.710Z,3.20
2017-12-20T21:31:24.043Z,3.47
2017-12-20T21:33:34.477Z,2.83
2017-12-20T21:35:43.512Z,2.97
2017-12-20T21:37:53.973Z,2.87
2017-12-20T21:40:06.854Z,2.43
2017-12-20T21:42:15.869Z,2.77
2017-12-20T21:44:29.126Z,2.70
2017-12-20T21:46:41.536Z,3.00
2017-12-20T21:48:51.230Z,2.90
2017-12-20T21:51:04.570Z,2.60
2017-12-20T21:53:19.226Z,3.13
2017-12-20T21:55:31.764Z,2.80
2017-12-20T21:57:39.588Z,2.67
2017-12-20T22:00:04.644Z,2.27
2017-12-20T22:02:17.048Z,2.83
2017-12-20T22:04:31.302Z,2.40
2017-12-20T22:06:38.975Z,2.70
2017-12-20T22:08:49.920Z,2.20
2017-12-20T22:11:00.272Z,2.20
2017-12-20T22:13:11.558Z,2.37
2017-12-20T22:15:18.255Z,2.50
2017-12-20T22:17:25.463Z,2.57
2017-12-20T22:19:38.995Z,2.57
2017-12-20T22:21:50.002Z,2.10
2017-12-20T22:23:56.432Z,2.60
2017-12-20T22:26:08.040Z,2.87
2017-12-20T22:28:17.537Z,2.50
2017-12-20T22:30:24.917Z,2.70
2017-12-20T22:32:37.301Z,2.40
2017-12-20T22:34:47.186Z,2.37
2017-12-20T22:36:54.964Z,2.53
2017-12-20T22:39:06.939Z,2.40
2017-12-20T22:41:14.240Z,2.73
2017-12-20T22:43:24.680Z,2.37
2017-12-20T22:45:36.128Z,2.70
2017-12-20T22:47:48.261Z,2.20
2017-12-20T22:49:57.237Z,2.23
2017-12-20T22:52:04.903Z,2.50
2017-12-20T22:54:16.196Z,2.40
2017-12-20T22:56:22.426Z,2.20
2017-12-20T22:58:32.192Z,2.67
2017-12-20T23:00:44.960Z,2.80
2017-12-20T23:02:58.454Z,2.20
2017-12-20T23:05:10.436Z,2.20
2017-12-20T23:07:21.328Z,2.30
2017-12-20T23:09:28.800Z,2.80
2017-12-20T23:11:39.042Z,3.00
2017-12-20T23:13:45.337Z,2.30
2017-12-20T23:15:52.250Z,2.20
2017-12-20T23:17:59.354Z,2.20
2017-12-20T23:20:12.923Z,2.03
2017-12-20T23:22:19.509Z,2.10
2017-12-20T23:24:28.563Z,2.00
2017-12-20T23:26:35.513Z,2.03
2017-12-20T23:28:41.557Z,2.20
2017-12-20T23:30:48.433Z,2.00
2017-12-20T23:32:55.658Z,2.20
2017-12-20T23:35:09.553Z,2.20
2017-12-20T23:37:18.096Z,1.70
2017-12-20T23:39:23.950Z,2.10
2017-12-20T23:41:31.760Z,1.87
2017-12-20T23:43:44.515Z,1.97
2017-12-20T23:45:53.773Z,1.80
2017-12-20T23:48:03.609Z,2.03
2017-12-20T23:50:13.891Z,2.00
2017-12-20T23:52:21.879Z,2.00
2017-12-20T23:54:28.276Z,1.60
2017-12-20T23:56:35.550Z,2.00
2017-12-20T23:58:41.377Z,1.80
